sensor_id;sensor_type;location;lat;lon;timestamp;P1;durP1;ratioP1;P2;durP2;ratioP2
29934;SDS011;19905;53.370;-6.314;2023-01-28T00:01:48;18.92;;;5.18;;
29934;SDS011;19905;53.370;-6.314;2023-01-28T00:04:17;21.95;;;5.40;;
29934;SDS011;19905;53.370;-6.314;2023-01-28T00:06:46;16.58;;;4.88;;
29934;SDS011;19905;53.370;-6.314;2023-01-28T00:09:16;21.77;;;4.90;;
29934;SDS011;19905;53.370;-6.314;2023-01-28T00:11:46;21.23;;;5.10;;
29934;SDS011;19905;53.370;-6.314;2023-01-28T00:14:14;16.65;;;4.80;;
29934;SDS011;19905;53.370;-6.314;2023-01-28T00:16:43;19.05;;;4.43;;
29934;SDS011;19905;53.370;-6.314;2023-01-28T00:19:12;13.48;;;4.18;;
29934;SDS011;19905;53.370;-6.314;2023-01-28T00:21:40;15.88;;;3.95;;
29934;SDS011;19905;53.370;-6.314;2023-01-28T00:24:11;19.48;;;4.10;;
29934;SDS011;19905;53.370;-6.314;2023-01-28T00:26:40;17.40;;;3.88;;
29934;SDS011;19905;53.370;-6.314;2023-01-28T00:29:12;17.70;;;4.25;;
29934;SDS011;19905;53.370;-6.314;2023-01-28T00:31:40;27.23;;;5.88;;
29934;SDS011;19905;53.370;-6.314;2023-01-28T00:34:09;20.33;;;4.10;;
29934;SDS011;19905;53.370;-6.314;2023-01-28T00:36:38;15.35;;;3.40;;
29934;SDS011;19905;53.370;-6.314;2023-01-28T00:39:09;12.70;;;3.53;;
29934;SDS011;19905;53.370;-6.314;2023-01-28T00:41:40;18.92;;;3.17;;
29934;SDS011;19905;53.370;-6.314;2023-01-28T00:44:09;16.90;;;3.00;;
29934;SDS011;19905;53.370;-6.314;2023-01-28T00:46:40;16.40;;;4.05;;
29934;SDS011;19905;53.370;-6.314;2023-01-28T00:49:09;24.20;;;3.60;;
29934;SDS011;19905;53.370;-6.314;2023-01-28T00:51:40;20.48;;;3.25;;
29934;SDS011;19905;53.370;-6.314;2023-01-28T00:54:10;13.70;;;3.03;;
29934;SDS011;19905;53.370;-6.314;2023-01-28T00:56:41;17.05;;;3.35;;
29934;SDS011;19905;53.370;-6.314;2023-01-28T00:59:10;20.58;;;2.90;;
29934;SDS011;19905;53.370;-6.314;2023-01-28T01:01:41;16.95;;;2.80;;
29934;SDS011;19905;53.370;-6.314;2023-01-28T01:04:09;15.77;;;2.67;;
29934;SDS011;19905;53.370;-6.314;2023-01-28T01:06:39;15.05;;;2.70;;
29934;SDS011;19905;53.370;-6.314;2023-01-28T01:09:09;16.08;;;2.85;;
29934;SDS011;19905;53.370;-6.314;2023-01-28T01:11:39;18.60;;;2.88;;
29934;SDS011;19905;53.370;-6.314;2023-01-28T01:14:10;15.98;;;3.15;;
29934;SDS011;19905;53.370;-6.314;2023-01-28T01:16:41;13.38;;;2.65;;
29934;SDS011;19905;53.370;-6.314;2023-01-28T01:19:13;15.50;;;2.58;;
29934;SDS011;19905;53.370;-6.314;2023-01-28T01:21:46;14.07;;;2.60;;
29934;SDS011;19905;53.370;-6.314;2023-01-28T01:24:17;10.82;;;2.50;;
29934;SDS011;19905;53.370;-6.314;2023-01-28T01:26:46;15.80;;;2.53;;
29934;SDS011;19905;53.370;-6.314;2023-01-28T01:29:15;20.45;;;2.88;;
29934;SDS011;19905;53.370;-6.314;2023-01-28T01:31:45;16.88;;;2.60;;
29934;SDS011;19905;53.370;-6.314;2023-01-28T01:34:15;11.98;;;2.67;;
29934;SDS011;19905;53.370;-6.314;2023-01-28T01:36:44;15.48;;;2.25;;
29934;SDS011;19905;53.370;-6.314;2023-01-28T01:39:13;11.43;;;2.33;;
29934;SDS011;19905;53.370;-6.314;2023-01-28T01:41:42;9.85;;;2.30;;
29934;SDS011;19905;53.370;-6.314;2023-01-28T01:47:28;9.55;;;2.70;;
29934;SDS011;19905;53.370;-6.314;2023-01-28T01:50:03;8.15;;;2.03;;
29934;SDS011;19905;53.370;-6.314;2023-01-28T01:52:38;14.57;;;2.40;;
29934;SDS011;19905;53.370;-6.314;2023-01-28T01:55:10;14.13;;;2.60;;
29934;SDS011;19905;53.370;-6.314;2023-01-28T01:57:43;13.85;;;2.90;;
29934;SDS011;19905;53.370;-6.314;2023-01-28T02:00:21;16.60;;;2.85;;
29934;SDS011;19905;53.370;-6.314;2023-01-28T02:02:53;12.88;;;2.67;;
29934;SDS011;19905;53.370;-6.314;2023-01-28T02:05:22;10.60;;;1.95;;
29934;SDS011;19905;53.370;-6.314;2023-01-28T02:07:53;11.27;;;2.30;;
29934;SDS011;19905;53.370;-6.314;2023-01-28T02:10:46;15.60;;;2.47;;
29934;SDS011;19905;53.370;-6.314;2023-01-28T02:13:18;16.15;;;2.63;;
29934;SDS011;19905;53.370;-6.314;2023-01-28T02:15:50;11.63;;;1.85;;
29934;SDS011;19905;53.370;-6.314;2023-01-28T02:18:20;15.88;;;1.90;;
29934;SDS011;19905;53.370;-6.314;2023-01-28T02:21:01;15.32;;;1.75;;
29934;SDS011;19905;53.370;-6.314;2023-01-28T02:23:48;13.18;;;1.90;;
29934;SDS011;19905;53.370;-6.314;2023-01-28T02:29:30;21.52;;;2.63;;
29934;SDS011;19905;53.370;-6.314;2023-01-28T02:32:07;16.45;;;2.03;;
29934;SDS011;19905;53.370;-6.314;2023-01-28T02:34:44;9.38;;;1.80;;
29934;SDS011;19905;53.370;-6.314;2023-01-28T02:37:20;20.80;;;2.50;;
29934;SDS011;19905;53.370;-6.314;2023-01-28T02:39:54;15.65;;;2.55;;
29934;SDS011;19905;53.370;-6.314;2023-01-28T02:42:31;16.52;;;2.33;;
29934;SDS011;19905;53.370;-6.314;2023-01-28T02:45:05;13.65;;;2.33;;
29934;SDS011;19905;53.370;-6.314;2023-01-28T02:47:43;11.90;;;2.65;;
29934;SDS011;19905;53.370;-6.314;2023-01-28T02:50:28;16.85;;;2.53;;
29934;SDS011;19905;53.370;-6.314;2023-01-28T02:53:08;13.90;;;2.60;;
29934;SDS011;19905;53.370;-6.314;2023-01-28T02:56:06;19.98;;;2.97;;
29934;SDS011;19905;53.370;-6.314;2023-01-28T02:58:45;22.40;;;3.00;;
29934;SDS011;19905;53.370;-6.314;2023-01-28T03:01:27;13.07;;;2.88;;
29934;SDS011;19905;53.370;-6.314;2023-01-28T03:04:03;21.05;;;3.03;;
29934;SDS011;19905;53.370;-6.314;2023-01-28T03:06:38;16.85;;;2.50;;
29934;SDS011;19905;53.370;-6.314;2023-01-28T03:09:11;22.27;;;2.63;;
29934;SDS011;19905;53.370;-6.314;2023-01-28T03:11:53;13.30;;;2.88;;
29934;SDS011;19905;53.370;-6.314;2023-01-28T03:14:42;11.48;;;2.50;;
29934;SDS011;19905;53.370;-6.314;2023-01-28T03:17:35;15.88;;;2.40;;
29934;SDS011;19905;53.370;-6.314;2023-01-28T03:20:27;21.92;;;2.95;;
29934;SDS011;19905;53.370;-6.314;2023-01-28T03:23:20;14.07;;;2.88;;
29934;SDS011;19905;53.370;-6.314;2023-01-28T03:26:10;16.42;;;2.50;;
29934;SDS011;19905;53.370;-6.314;2023-01-28T03:29:02;9.20;;;2.10;;
29934;SDS011;19905;53.370;-6.314;2023-01-28T03:31:52;11.75;;;2.42;;
29934;SDS011;19905;53.370;-6.314;2023-01-28T03:34:43;8.55;;;1.98;;
29934;SDS011;19905;53.370;-6.314;2023-01-28T03:37:31;12.65;;;2.25;;
29934;SDS011;19905;53.370;-6.314;2023-01-28T03:40:03;17.00;;;2.72;;
29934;SDS011;19905;53.370;-6.314;2023-01-28T03:42:33;14.07;;;2.70;;
29934;SDS011;19905;53.370;-6.314;2023-01-28T03:45:02;12.20;;;2.33;;
29934;SDS011;19905;53.370;-6.314;2023-01-28T03:47:33;11.77;;;2.60;;
29934;SDS011;19905;53.370;-6.314;2023-01-28T03:50:03;12.88;;;2.60;;
29934;SDS011;19905;53.370;-6.314;2023-01-28T03:52:32;16.00;;;3.13;;
29934;SDS011;19905;53.370;-6.314;2023-01-28T03:55:01;13.95;;;3.17;;
29934;SDS011;19905;53.370;-6.314;2023-01-28T03:57:40;14.88;;;2.85;;
29934;SDS011;19905;53.370;-6.314;2023-01-28T04:00:12;14.43;;;2.85;;
29934;SDS011;19905;53.370;-6.314;2023-01-28T04:02:43;9.88;;;2.80;;
29934;SDS011;19905;53.370;-6.314;2023-01-28T04:05:14;11.82;;;2.90;;
29934;SDS011;19905;53.370;-6.314;2023-01-28T04:07:45;8.38;;;2.60;;
29934;SDS011;19905;53.370;-6.314;2023-01-28T04:10:14;13.18;;;3.00;;
29934;SDS011;19905;53.370;-6.314;2023-01-28T04:12:44;7.40;;;2.90;;
29934;SDS011;19905;53.370;-6.314;2023-01-28T04:15:16;13.15;;;3.05;;
29934;SDS011;19905;53.370;-6.314;2023-01-28T04:17:45;13.55;;;2.92;;
29934;SDS011;19905;53.370;-6.314;2023-01-28T04:20:16;14.98;;;2.83;;
29934;SDS011;19905;53.370;-6.314;2023-01-28T04:22:44;10.98;;;2.80;;
29934;SDS011;19905;53.370;-6.314;2023-01-28T04:25:13;13.20;;;2.78;;
29934;SDS011;19905;53.370;-6.314;2023-01-28T04:27:42;11.90;;;3.28;;
29934;SDS011;19905;53.370;-6.314;2023-01-28T04:30:11;12.00;;;2.80;;
29934;SDS011;19905;53.370;-6.314;2023-01-28T04:32:40;8.75;;;2.78;;
29934;SDS011;19905;53.370;-6.314;2023-01-28T04:35:09;7.80;;;2.42;;
29934;SDS011;19905;53.370;-6.314;2023-01-28T04:37:41;11.60;;;2.58;;
29934;SDS011;19905;53.370;-6.314;2023-01-28T04:40:10;9.20;;;2.67;;
29934;SDS011;19905;53.370;-6.314;2023-01-28T04:42:39;8.23;;;2.30;;
29934;SDS011;19905;53.370;-6.314;2023-01-28T04:45:09;6.93;;;2.10;;
29934;SDS011;19905;53.370;-6.314;2023-01-28T04:47:46;7.95;;;2.00;;
29934;SDS011;19905;53.370;-6.314;2023-01-28T04:50:15;8.30;;;2.10;;
29934;SDS011;19905;53.370;-6.314;2023-01-28T04:52:47;10.52;;;2.15;;
29934;SDS011;19905;53.370;-6.314;2023-01-28T04:55:16;6.60;;;2.28;;
29934;SDS011;19905;53.370;-6.314;2023-01-28T04:57:45;10.25;;;2.13;;
29934;SDS011;19905;53.370;-6.314;2023-01-28T05:00:15;8.38;;;2.08;;
29934;SDS011;19905;53.370;-6.314;2023-01-28T05:02:45;7.88;;;1.80;;
29934;SDS011;19905;53.370;-6.314;2023-01-28T05:05:13;8.65;;;2.50;;
29934;SDS011;19905;53.370;-6.314;2023-01-28T05:07:43;8.20;;;1.80;;
29934;SDS011;19905;53.370;-6.314;2023-01-28T05:10:21;6.72;;;2.10;;
29934;SDS011;19905;53.370;-6.314;2023-01-28T05:12:51;8.57;;;2.10;;
29934;SDS011;19905;53.370;-6.314;2023-01-28T05:15:19;10.10;;;2.33;;
29934;SDS011;19905;53.370;-6.314;2023-01-28T05:17:49;9.68;;;2.20;;
29934;SDS011;19905;53.370;-6.314;2023-01-28T05:20:23;10.52;;;2.03;;
29934;SDS011;19905;53.370;-6.314;2023-01-28T05:22:51;9.05;;;2.17;;
29934;SDS011;19905;53.370;-6.314;2023-01-28T05:25:22;5.82;;;2.03;;
29934;SDS011;19905;53.370;-6.314;2023-01-28T05:27:50;11.05;;;2.42;;
29934;SDS011;19905;53.370;-6.314;2023-01-28T05:30:19;7.28;;;2.15;;
29934;SDS011;19905;53.370;-6.314;2023-01-28T05:32:48;10.13;;;2.10;;
29934;SDS011;19905;53.370;-6.314;2023-01-28T05:35:22;9.68;;;2.17;;
29934;SDS011;19905;53.370;-6.314;2023-01-28T05:37:51;7.40;;;1.98;;
29934;SDS011;19905;53.370;-6.314;2023-01-28T05:40:22;13.70;;;3.00;;
29934;SDS011;19905;53.370;-6.314;2023-01-28T05:42:51;14.13;;;2.50;;
29934;SDS011;19905;53.370;-6.314;2023-01-28T05:45:20;14.02;;;2.88;;
29934;SDS011;19905;53.370;-6.314;2023-01-28T05:47:49;13.38;;;2.63;;
29934;SDS011;19905;53.370;-6.314;2023-01-28T05:50:17;12.07;;;2.67;;
29934;SDS011;19905;53.370;-6.314;2023-01-28T05:52:46;14.20;;;2.95;;
29934;SDS011;19905;53.370;-6.314;2023-01-28T05:55:15;11.52;;;2.92;;
29934;SDS011;19905;53.370;-6.314;2023-01-28T05:57:51;15.00;;;2.90;;
29934;SDS011;19905;53.370;-6.314;2023-01-28T06:00:21;21.25;;;3.28;;
29934;SDS011;19905;53.370;-6.314;2023-01-28T06:02:50;8.68;;;3.33;;
29934;SDS011;19905;53.370;-6.314;2023-01-28T06:05:19;15.48;;;3.38;;
29934;SDS011;19905;53.370;-6.314;2023-01-28T06:07:48;12.35;;;2.60;;
29934;SDS011;19905;53.370;-6.314;2023-01-28T06:10:17;10.00;;;3.38;;
29934;SDS011;19905;53.370;-6.314;2023-01-28T06:12:46;9.00;;;3.30;;
29934;SDS011;19905;53.370;-6.314;2023-01-28T06:15:18;17.58;;;3.50;;
29934;SDS011;19905;53.370;-6.314;2023-01-28T06:17:47;12.45;;;3.80;;
29934;SDS011;19905;53.370;-6.314;2023-01-28T06:20:16;14.30;;;3.63;;
29934;SDS011;19905;53.370;-6.314;2023-01-28T06:22:45;13.38;;;3.60;;
29934;SDS011;19905;53.370;-6.314;2023-01-28T06:25:15;8.85;;;3.47;;
29934;SDS011;19905;53.370;-6.314;2023-01-28T06:27:44;13.00;;;3.60;;
29934;SDS011;19905;53.370;-6.314;2023-01-28T06:30:13;17.20;;;4.20;;
29934;SDS011;19905;53.370;-6.314;2023-01-28T06:32:45;14.43;;;3.72;;
29934;SDS011;19905;53.370;-6.314;2023-01-28T06:35:13;15.20;;;4.30;;
29934;SDS011;19905;53.370;-6.314;2023-01-28T06:37:42;12.15;;;3.15;;
29934;SDS011;19905;53.370;-6.314;2023-01-28T06:40:11;16.02;;;3.83;;
29934;SDS011;19905;53.370;-6.314;2023-01-28T06:42:41;15.57;;;4.05;;
29934;SDS011;19905;53.370;-6.314;2023-01-28T06:45:10;10.65;;;4.15;;
29934;SDS011;19905;53.370;-6.314;2023-01-28T06:47:39;12.60;;;3.92;;
29934;SDS011;19905;53.370;-6.314;2023-01-28T06:50:15;14.80;;;4.18;;
29934;SDS011;19905;53.370;-6.314;2023-01-28T06:52:46;12.82;;;4.30;;
29934;SDS011;19905;53.370;-6.314;2023-01-28T06:55:15;13.27;;;4.20;;
29934;SDS011;19905;53.370;-6.314;2023-01-28T06:57:44;10.35;;;3.65;;
29934;SDS011;19905;53.370;-6.314;2023-01-28T07:00:12;10.88;;;3.38;;
29934;SDS011;19905;53.370;-6.314;2023-01-28T07:02:42;9.95;;;3.40;;
29934;SDS011;19905;53.370;-6.314;2023-01-28T07:05:11;10.77;;;3.40;;
29934;SDS011;19905;53.370;-6.314;2023-01-28T07:07:41;12.25;;;4.43;;
29934;SDS011;19905;53.370;-6.314;2023-01-28T07:10:11;10.20;;;3.65;;
29934;SDS011;19905;53.370;-6.314;2023-01-28T07:12:40;9.02;;;3.38;;
29934;SDS011;19905;53.370;-6.314;2023-01-28T07:15:11;9.82;;;3.17;;
29934;SDS011;19905;53.370;-6.314;2023-01-28T07:17:47;9.48;;;3.30;;
29934;SDS011;19905;53.370;-6.314;2023-01-28T07:20:15;10.43;;;3.28;;
29934;SDS011;19905;53.370;-6.314;2023-01-28T07:22:46;7.97;;;3.50;;
29934;SDS011;19905;53.370;-6.314;2023-01-28T07:25:14;8.93;;;3.22;;
29934;SDS011;19905;53.370;-6.314;2023-01-28T07:27:47;9.23;;;3.55;;
29934;SDS011;19905;53.370;-6.314;2023-01-28T07:30:17;9.82;;;3.33;;
29934;SDS011;19905;53.370;-6.314;2023-01-28T07:32:51;11.95;;;3.13;;
29934;SDS011;19905;53.370;-6.314;2023-01-28T07:35:21;10.90;;;3.50;;
29934;SDS011;19905;53.370;-6.314;2023-01-28T07:37:52;9.10;;;3.75;;
29934;SDS011;19905;53.370;-6.314;2023-01-28T07:40:23;9.27;;;3.63;;
29934;SDS011;19905;53.370;-6.314;2023-01-28T07:42:54;10.15;;;3.70;;
29934;SDS011;19905;53.370;-6.314;2023-01-28T07:45:24;11.40;;;3.40;;
29934;SDS011;19905;53.370;-6.314;2023-01-28T07:47:55;9.75;;;3.88;;
29934;SDS011;19905;53.370;-6.314;2023-01-28T07:50:24;9.10;;;3.63;;
29934;SDS011;19905;53.370;-6.314;2023-01-28T07:52:56;7.45;;;3.42;;
29934;SDS011;19905;53.370;-6.314;2023-01-28T07:55:25;9.23;;;3.72;;
29934;SDS011;19905;53.370;-6.314;2023-01-28T07:57:57;8.93;;;3.88;;
29934;SDS011;19905;53.370;-6.314;2023-01-28T08:00:27;9.57;;;3.65;;
29934;SDS011;19905;53.370;-6.314;2023-01-28T08:02:59;8.00;;;3.30;;
29934;SDS011;19905;53.370;-6.314;2023-01-28T08:05:37;8.98;;;3.83;;
29934;SDS011;19905;53.370;-6.314;2023-01-28T08:08:10;8.43;;;3.35;;
29934;SDS011;19905;53.370;-6.314;2023-01-28T08:10:39;12.10;;;3.67;;
29934;SDS011;19905;53.370;-6.314;2023-01-28T08:13:09;7.82;;;3.40;;
29934;SDS011;19905;53.370;-6.314;2023-01-28T08:15:39;8.93;;;3.20;;
29934;SDS011;19905;53.370;-6.314;2023-01-28T08:18:09;7.07;;;3.28;;
29934;SDS011;19905;53.370;-6.314;2023-01-28T08:20:39;5.15;;;2.70;;
29934;SDS011;19905;53.370;-6.314;2023-01-28T08:23:12;4.63;;;2.70;;
29934;SDS011;19905;53.370;-6.314;2023-01-28T08:25:42;4.07;;;2.42;;
29934;SDS011;19905;53.370;-6.314;2023-01-28T08:28:12;6.30;;;3.10;;
29934;SDS011;19905;53.370;-6.314;2023-01-28T08:30:43;6.35;;;2.70;;
29934;SDS011;19905;53.370;-6.314;2023-01-28T08:33:16;6.28;;;3.28;;
29934;SDS011;19905;53.370;-6.314;2023-01-28T08:35:45;4.80;;;3.10;;
29934;SDS011;19905;53.370;-6.314;2023-01-28T08:38:15;7.32;;;3.35;;
29934;SDS011;19905;53.370;-6.314;2023-01-28T08:40:46;9.73;;;3.08;;
29934;SDS011;19905;53.370;-6.314;2023-01-28T08:43:17;6.25;;;3.47;;
29934;SDS011;19905;53.370;-6.314;2023-01-28T08:45:45;8.00;;;3.63;;
29934;SDS011;19905;53.370;-6.314;2023-01-28T08:48:15;7.18;;;3.80;;
29934;SDS011;19905;53.370;-6.314;2023-01-28T08:50:45;8.45;;;3.78;;
29934;SDS011;19905;53.370;-6.314;2023-01-28T08:53:16;10.63;;;3.60;;
29934;SDS011;19905;53.370;-6.314;2023-01-28T08:55:46;9.07;;;4.07;;
29934;SDS011;19905;53.370;-6.314;2023-01-28T08:58:15;8.32;;;3.67;;
29934;SDS011;19905;53.370;-6.314;2023-01-28T09:00:45;6.13;;;2.90;;
29934;SDS011;19905;53.370;-6.314;2023-01-28T09:03:15;4.75;;;2.55;;
29934;SDS011;19905;53.370;-6.314;2023-01-28T09:05:44;6.00;;;2.95;;
29934;SDS011;19905;53.370;-6.314;2023-01-28T09:08:14;4.28;;;2.28;;
29934;SDS011;19905;53.370;-6.314;2023-01-28T09:10:44;4.28;;;2.58;;
29934;SDS011;19905;53.370;-6.314;2023-01-28T09:13:13;5.53;;;2.88;;
29934;SDS011;19905;53.370;-6.314;2023-01-28T09:15:42;5.85;;;2.70;;
29934;SDS011;19905;53.370;-6.314;2023-01-28T09:18:11;5.38;;;2.70;;
29934;SDS011;19905;53.370;-6.314;2023-01-28T09:20:40;5.68;;;2.85;;
29934;SDS011;19905;53.370;-6.314;2023-01-28T09:23:08;4.05;;;2.50;;
29934;SDS011;19905;53.370;-6.314;2023-01-28T09:25:40;3.60;;;2.28;;
29934;SDS011;19905;53.370;-6.314;2023-01-28T09:28:09;7.82;;;2.70;;
29934;SDS011;19905;53.370;-6.314;2023-01-28T09:30:37;3.65;;;2.35;;
29934;SDS011;19905;53.370;-6.314;2023-01-28T09:33:18;3.85;;;2.50;;
29934;SDS011;19905;53.370;-6.314;2023-01-28T09:35:47;5.00;;;2.65;;
29934;SDS011;19905;53.370;-6.314;2023-01-28T09:38:16;4.82;;;2.50;;
29934;SDS011;19905;53.370;-6.314;2023-01-28T09:40:46;4.20;;;2.53;;
29934;SDS011;19905;53.370;-6.314;2023-01-28T09:43:22;4.15;;;2.35;;
29934;SDS011;19905;53.370;-6.314;2023-01-28T09:46:04;3.88;;;1.90;;
29934;SDS011;19905;53.370;-6.314;2023-01-28T09:48:37;3.78;;;2.00;;
29934;SDS011;19905;53.370;-6.314;2023-01-28T09:51:09;3.13;;;1.95;;
29934;SDS011;19905;53.370;-6.314;2023-01-28T09:53:46;3.55;;;2.05;;
29934;SDS011;19905;53.370;-6.314;2023-01-28T09:56:24;4.00;;;2.00;;
29934;SDS011;19905;53.370;-6.314;2023-01-28T09:58:57;3.53;;;2.10;;
29934;SDS011;19905;53.370;-6.314;2023-01-28T10:01:34;3.83;;;2.20;;
29934;SDS011;19905;53.370;-6.314;2023-01-28T10:04:11;4.00;;;2.45;;
29934;SDS011;19905;53.370;-6.314;2023-01-28T10:06:55;8.35;;;3.10;;
29934;SDS011;19905;53.370;-6.314;2023-01-28T10:09:38;7.35;;;3.33;;
29934;SDS011;19905;53.370;-6.314;2023-01-28T10:12:19;7.90;;;3.20;;
29934;SDS011;19905;53.370;-6.314;2023-01-28T10:15:12;6.68;;;3.20;;
29934;SDS011;19905;53.370;-6.314;2023-01-28T10:18:01;6.13;;;3.40;;
29934;SDS011;19905;53.370;-6.314;2023-01-28T10:20:45;5.88;;;3.20;;
29934;SDS011;19905;53.370;-6.314;2023-01-28T10:23:19;7.40;;;3.65;;
29934;SDS011;19905;53.370;-6.314;2023-01-28T10:25:53;5.63;;;2.97;;
29934;SDS011;19905;53.370;-6.314;2023-01-28T10:28:28;5.40;;;2.97;;
29934;SDS011;19905;53.370;-6.314;2023-01-28T10:30:58;6.15;;;3.55;;
29934;SDS011;19905;53.370;-6.314;2023-01-28T10:33:28;5.68;;;3.20;;
29934;SDS011;19905;53.370;-6.314;2023-01-28T10:36:02;4.95;;;3.17;;
29934;SDS011;19905;53.370;-6.314;2023-01-28T10:38:32;5.65;;;3.00;;
29934;SDS011;19905;53.370;-6.314;2023-01-28T10:41:01;6.15;;;3.40;;
29934;SDS011;19905;53.370;-6.314;2023-01-28T10:43:36;5.07;;;2.97;;
29934;SDS011;19905;53.370;-6.314;2023-01-28T10:46:08;4.68;;;3.00;;
29934;SDS011;19905;53.370;-6.314;2023-01-28T10:48:41;4.68;;;2.90;;
29934;SDS011;19905;53.370;-6.314;2023-01-28T10:51:13;5.70;;;3.13;;
29934;SDS011;19905;53.370;-6.314;2023-01-28T10:53:43;6.15;;;2.83;;
29934;SDS011;19905;53.370;-6.314;2023-01-28T10:56:13;3.72;;;2.55;;
29934;SDS011;19905;53.370;-6.314;2023-01-28T10:58:49;3.10;;;2.33;;
29934;SDS011;19905;53.370;-6.314;2023-01-28T11:01:25;4.75;;;2.83;;
29934;SDS011;19905;53.370;-6.314;2023-01-28T11:04:17;5.45;;;3.05;;
29934;SDS011;19905;53.370;-6.314;2023-01-28T11:06:53;5.82;;;2.70;;
29934;SDS011;19905;53.370;-6.314;2023-01-28T11:09:25;4.00;;;2.50;;
29934;SDS011;19905;53.370;-6.314;2023-01-28T11:11:56;6.82;;;2.60;;
29934;SDS011;19905;53.370;-6.314;2023-01-28T11:14:27;3.45;;;2.35;;
29934;SDS011;19905;53.370;-6.314;2023-01-28T11:16:55;3.28;;;2.08;;
29934;SDS011;19905;53.370;-6.314;2023-01-28T11:19:28;3.10;;;2.20;;
29934;SDS011;19905;53.370;-6.314;2023-01-28T11:22:03;2.63;;;1.90;;
29934;SDS011;19905;53.370;-6.314;2023-01-28T11:24:31;2.72;;;1.92;;
29934;SDS011;19905;53.370;-6.314;2023-01-28T11:27:08;3.40;;;1.60;;
29934;SDS011;19905;53.370;-6.314;2023-01-28T11:29:44;1.92;;;1.08;;
29934;SDS011;19905;53.370;-6.314;2023-01-28T11:32:16;4.15;;;1.27;;
29934;SDS011;19905;53.370;-6.314;2023-01-28T11:34:47;1.75;;;1.25;;
29934;SDS011;19905;53.370;-6.314;2023-01-28T11:37:19;2.67;;;1.27;;
29934;SDS011;19905;53.370;-6.314;2023-01-28T11:39:59;2.22;;;1.10;;
29934;SDS011;19905;53.370;-6.314;2023-01-28T11:42:28;2.83;;;1.25;;
29934;SDS011;19905;53.370;-6.314;2023-01-28T11:45:00;1.48;;;1.05;;
29934;SDS011;19905;53.370;-6.314;2023-01-28T11:47:41;1.50;;;1.10;;
29934;SDS011;19905;53.370;-6.314;2023-01-28T11:50:26;1.70;;;1.45;;
29934;SDS011;19905;53.370;-6.314;2023-01-28T11:53:10;3.53;;;1.40;;
29934;SDS011;19905;53.370;-6.314;2023-01-28T11:56:06;2.33;;;1.60;;
29934;SDS011;19905;53.370;-6.314;2023-01-28T11:58:51;1.75;;;1.30;;
29934;SDS011;19905;53.370;-6.314;2023-01-28T12:01:33;1.80;;;1.27;;
29934;SDS011;19905;53.370;-6.314;2023-01-28T12:04:17;1.85;;;1.33;;
29934;SDS011;19905;53.370;-6.314;2023-01-28T12:06:57;2.22;;;1.63;;
29934;SDS011;19905;53.370;-6.314;2023-01-28T12:09:39;3.42;;;2.00;;
29934;SDS011;19905;53.370;-6.314;2023-01-28T12:12:22;4.60;;;2.30;;
29934;SDS011;19905;53.370;-6.314;2023-01-28T12:15:37;4.57;;;2.80;;
29934;SDS011;19905;53.370;-6.314;2023-01-28T12:18:28;4.43;;;2.55;;
29934;SDS011;19905;53.370;-6.314;2023-01-28T12:21:16;5.45;;;2.67;;
29934;SDS011;19905;53.370;-6.314;2023-01-28T12:23:58;5.25;;;3.28;;
29934;SDS011;19905;53.370;-6.314;2023-01-28T12:26:40;4.65;;;2.80;;
29934;SDS011;19905;53.370;-6.314;2023-01-28T12:29:26;5.22;;;2.85;;
29934;SDS011;19905;53.370;-6.314;2023-01-28T12:32:07;5.22;;;3.00;;
29934;SDS011;19905;53.370;-6.314;2023-01-28T12:34:56;5.70;;;3.20;;
29934;SDS011;19905;53.370;-6.314;2023-01-28T12:37:40;5.10;;;2.97;;
29934;SDS011;19905;53.370;-6.314;2023-01-28T12:40:26;6.68;;;3.55;;
29934;SDS011;19905;53.370;-6.314;2023-01-28T12:43:08;5.57;;;3.00;;
29934;SDS011;19905;53.370;-6.314;2023-01-28T12:45:42;6.75;;;3.80;;
29934;SDS011;19905;53.370;-6.314;2023-01-28T12:48:14;5.20;;;3.42;;
29934;SDS011;19905;53.370;-6.314;2023-01-28T12:50:48;7.53;;;3.95;;
29934;SDS011;19905;53.370;-6.314;2023-01-28T12:53:24;7.47;;;4.00;;
29934;SDS011;19905;53.370;-6.314;2023-01-28T12:55:57;8.02;;;3.90;;
29934;SDS011;19905;53.370;-6.314;2023-01-28T12:58:35;7.63;;;3.85;;
29934;SDS011;19905;53.370;-6.314;2023-01-28T13:01:08;8.32;;;4.50;;
29934;SDS011;19905;53.370;-6.314;2023-01-28T13:03:42;9.30;;;4.90;;
29934;SDS011;19905;53.370;-6.314;2023-01-28T13:06:20;8.80;;;5.50;;
29934;SDS011;19905;53.370;-6.314;2023-01-28T13:08:55;8.05;;;5.40;;
29934;SDS011;19905;53.370;-6.314;2023-01-28T13:11:31;6.15;;;4.45;;
29934;SDS011;19905;53.370;-6.314;2023-01-28T13:14:02;9.52;;;4.78;;
29934;SDS011;19905;53.370;-6.314;2023-01-28T13:16:32;8.05;;;3.90;;
29934;SDS011;19905;53.370;-6.314;2023-01-28T13:19:06;6.55;;;4.50;;
29934;SDS011;19905;53.370;-6.314;2023-01-28T13:21:37;6.88;;;4.90;;
29934;SDS011;19905;53.370;-6.314;2023-01-28T13:24:19;6.45;;;4.90;;
29934;SDS011;19905;53.370;-6.314;2023-01-28T13:26:50;3.35;;;2.30;;
29934;SDS011;19905;53.370;-6.314;2023-01-28T13:29:27;3.83;;;2.80;;
29934;SDS011;19905;53.370;-6.314;2023-01-28T13:31:58;4.95;;;3.47;;
29934;SDS011;19905;53.370;-6.314;2023-01-28T13:34:30;5.85;;;3.55;;
29934;SDS011;19905;53.370;-6.314;2023-01-28T13:37:06;5.93;;;4.20;;
29934;SDS011;19905;53.370;-6.314;2023-01-28T13:39:45;5.47;;;3.88;;
29934;SDS011;19905;53.370;-6.314;2023-01-28T13:42:21;7.03;;;4.30;;
29934;SDS011;19905;53.370;-6.314;2023-01-28T13:44:51;7.03;;;4.82;;
29934;SDS011;19905;53.370;-6.314;2023-01-28T13:47:22;7.90;;;5.25;;
29934;SDS011;19905;53.370;-6.314;2023-01-28T13:49:54;8.60;;;6.22;;
29934;SDS011;19905;53.370;-6.314;2023-01-28T13:52:28;10.10;;;6.18;;
29934;SDS011;19905;53.370;-6.314;2023-01-28T13:55:00;9.23;;;6.20;;
29934;SDS011;19905;53.370;-6.314;2023-01-28T14:00:57;9.60;;;5.55;;
29934;SDS011;19905;53.370;-6.314;2023-01-28T14:07:06;9.35;;;6.40;;
29934;SDS011;19905;53.370;-6.314;2023-01-28T14:13:04;9.32;;;6.35;;
29934;SDS011;19905;53.370;-6.314;2023-01-28T14:16:15;11.32;;;6.30;;
29934;SDS011;19905;53.370;-6.314;2023-01-28T14:18:57;10.70;;;6.78;;
29934;SDS011;19905;53.370;-6.314;2023-01-28T14:21:31;11.65;;;6.30;;
29934;SDS011;19905;53.370;-6.314;2023-01-28T14:24:02;10.80;;;7.57;;
29934;SDS011;19905;53.370;-6.314;2023-01-28T14:26:39;14.48;;;8.75;;
29934;SDS011;19905;53.370;-6.314;2023-01-28T14:29:16;11.70;;;7.82;;
29934;SDS011;19905;53.370;-6.314;2023-01-28T14:31:52;13.85;;;8.15;;
29934;SDS011;19905;53.370;-6.314;2023-01-28T14:34:23;13.90;;;8.30;;
29934;SDS011;19905;53.370;-6.314;2023-01-28T14:36:55;15.20;;;8.80;;
29934;SDS011;19905;53.370;-6.314;2023-01-28T14:39:26;12.82;;;7.65;;
29934;SDS011;19905;53.370;-6.314;2023-01-28T14:41:58;13.80;;;7.20;;
29934;SDS011;19905;53.370;-6.314;2023-01-28T14:44:30;11.23;;;6.93;;
29934;SDS011;19905;53.370;-6.314;2023-01-28T14:47:09;10.73;;;6.57;;
29934;SDS011;19905;53.370;-6.314;2023-01-28T14:49:58;13.35;;;8.27;;
29934;SDS011;19905;53.370;-6.314;2023-01-28T14:52:41;12.35;;;8.07;;
29934;SDS011;19905;53.370;-6.314;2023-01-28T14:55:26;10.90;;;6.40;;
29934;SDS011;19905;53.370;-6.314;2023-01-28T14:58:02;7.70;;;4.95;;
29934;SDS011;19905;53.370;-6.314;2023-01-28T15:00:33;8.00;;;5.18;;
29934;SDS011;19905;53.370;-6.314;2023-01-28T15:03:10;29.45;;;14.73;;
29934;SDS011;19905;53.370;-6.314;2023-01-28T15:06:05;14.23;;;8.65;;
29934;SDS011;19905;53.370;-6.314;2023-01-28T15:08:40;8.52;;;5.25;;
29934;SDS011;19905;53.370;-6.314;2023-01-28T15:11:09;8.55;;;5.68;;
29934;SDS011;19905;53.370;-6.314;2023-01-28T15:13:42;8.40;;;5.05;;
29934;SDS011;19905;53.370;-6.314;2023-01-28T15:16:15;9.95;;;6.10;;
29934;SDS011;19905;53.370;-6.314;2023-01-28T15:18:47;22.65;;;12.60;;
29934;SDS011;19905;53.370;-6.314;2023-01-28T15:21:20;26.25;;;14.50;;
29934;SDS011;19905;53.370;-6.314;2023-01-28T15:23:50;31.80;;;17.15;;